< Typhoon 198610 1986 Season Typhoon 198612 >
Typhoon 198611 (GEORGETTE)
General InformationTrack Information on Google MapsDetailed Wind InformationList of All Images || Disaster Info.ResourceGoogle EarthGE AnimationAtom FeedGeoJSON
Detalied Best Track (Time Zone = UTC)
Year Month Day Hour Lat. Long. Pressure (hPa) Wind (kt) Class Image Chart
1986 8 8 06 13.5 181.0 1006 0 7 Image Chart
1986 8 8 12 14.0 180.0 1006 0 2 Image Chart
1986 8 8 18 14.0 179.0 1004 0 2 Image Chart
1986 8 9 00 14.2 177.7 1000 0 2 Image Chart
1986 8 9 06 14.5 176.4 996 40 3 Image Chart
1986 8 9 12 14.9 175.1 994 40 3 Image Chart
1986 8 9 18 15.2 173.9 992 45 3 Image Chart
1986 8 10 00 15.4 172.6 990 45 3 Image Chart
1986 8 10 06 15.5 171.8 990 45 3 Image Chart
1986 8 10 12 15.6 171.1 985 50 4 Image Chart
1986 8 10 18 15.7 170.5 980 55 4 Image Chart
1986 8 11 00 15.9 169.9 975 60 4 Image Chart
1986 8 11 06 16.0 169.6 975 60 4 Image Chart
1986 8 11 12 16.1 169.4 975 60 4 Image Chart
1986 8 11 18 16.4 169.4 970 60 4 Image Chart
1986 8 12 00 16.7 169.5 970 60 4 Image Chart
1986 8 12 06 17.1 169.1 975 60 4 Image Chart
1986 8 12 12 17.6 168.3 980 60 4 Image Chart
1986 8 12 18 18.3 167.7 985 60 4 Image Chart
1986 8 13 00 19.1 167.2 990 45 3 Image Chart
1986 8 13 06 20.1 165.8 990 45 3 Image Chart
1986 8 13 12 20.5 163.9 992 40 3 Image Chart
1986 8 13 18 20.7 162.0 994 40 3 Image Chart
1986 8 14 00 20.9 160.1 994 40 3 Image Chart
1986 8 14 06 22.2 157.8 994 40 3 Image Chart
1986 8 14 12 22.7 155.1 990 40 3 Image Chart
1986 8 14 18 21.7 152.6 985 45 3 Image Chart
1986 8 15 00 20.0 152.0 985 40 3 Image Chart
1986 8 15 06 18.8 153.1 990 0 2 Image Chart
1986 8 15 12 18.8 155.5 994 0 2 Image Chart
Japan Meteorological Agency Best Track Data | Correction Date : 2013-11-22
< Typhoon 198610 1986 Season Typhoon 198612 >

Help